Time;durP1;ratioP1;P1;durP2;ratioP2;P2;SDS_P1;SDS_P2;PMS_P1;PMS_P2;Temp;Humidity;BMP_temperature;BMP_pressure;BME280_temperature;BME280_humidity;BME280_pressure;Samples;Min_cycle;Max_cycle;Signal;HPM_P1;HPM_P2
2023/12/13 00:02:54;;;;;;;2.03;1.20;;;;;;;16.24;62.59;99395.03;10410807;28;20318;-58
2023/12/13 00:07:54;;;;;;;3.50;1.40;;;;;;;16.22;62.16;99387.34;10410844;28;20087;-58
2023/12/13 00:12:55;;;;;;;1.70;0.97;;;;;;;16.21;62.58;99387.63;10409955;28;20287;-58
2023/12/13 00:17:56;;;;;;;1.60;1.03;;;;;;;16.21;63.25;99383.06;10410313;28;20759;-57
2023/12/13 00:22:56;;;;;;;1.33;0.77;;;;;;;16.19;62.90;99393.28;10409766;28;20720;-58
2023/12/13 00:27:56;;;;;;;1.50;1.10;;;;;;;16.19;62.33;99390.63;10414396;28;20110;-57
2023/12/13 00:32:57;;;;;;;1.87;0.83;;;;;;;16.18;63.30;99390.94;10450176;28;20307;-58
2023/12/13 00:37:57;;;;;;;1.40;0.77;;;;;;;16.16;63.32;99385.09;10450708;28;20028;-59
2023/12/13 00:42:57;;;;;;;1.67;0.90;;;;;;;16.13;62.17;99381.19;10450261;28;20025;-58
2023/12/13 00:47:57;;;;;;;1.20;0.70;;;;;;;16.13;62.72;99381.19;10450513;28;20282;-58
2023/12/13 00:52:58;;;;;;;2.20;0.97;;;;;;;16.13;62.44;99388.41;10450006;28;20024;-58
2023/12/13 00:57:58;;;;;;;1.87;0.93;;;;;;;16.11;62.04;99391.41;10450005;28;20279;-58
2023/12/13 01:02:58;;;;;;;1.40;0.70;;;;;;;16.10;63.22;99384.44;10448814;28;20739;-58
2023/12/13 01:07:59;;;;;;;2.87;1.20;;;;;;;16.08;62.99;99384.75;10449937;28;20286;-58
2023/12/13 01:13:00;;;;;;;1.67;0.90;;;;;;;16.07;63.30;99387.75;10449173;28;20765;-58
2023/12/13 01:18:01;;;;;;;1.83;0.73;;;;;;;16.06;62.72;99381.63;10449731;28;20028;-58
2023/12/13 01:23:01;;;;;;;1.50;0.80;;;;;;;16.05;62.91;99385.41;10449075;28;20021;-58
2023/12/13 01:28:02;;;;;;;1.77;0.83;;;;;;;16.04;61.91;99386.50;10449552;28;20745;-57
2023/12/13 01:33:02;;;;;;;1.85;0.88;;;;;;;16.03;62.17;99387.59;10448564;28;20299;-58
2023/12/13 01:38:02;;;;;;;1.95;1.10;;;;;;;16.03;62.87;99392.16;10449258;28;20033;-58
2023/12/13 01:43:03;;;;;;;1.25;0.75;;;;;;;16.02;62.13;99402.06;10449027;28;20021;-58
2023/12/13 01:48:03;;;;;;;1.43;1.03;;;;;;;16.01;62.08;99400.50;10448976;28;20683;-58
2023/12/13 01:53:03;;;;;;;1.50;0.93;;;;;;;16.01;61.87;99407.72;10448862;28;20365;-57
2023/12/13 01:58:04;;;;;;;1.93;0.70;;;;;;;16.01;61.99;99407.72;10448837;28;20025;-58
2023/12/13 02:03:05;;;;;;;1.13;0.95;;;;;;;15.98;61.83;99411.81;10430988;28;20264;-58
2023/12/13 02:08:06;;;;;;;1.83;0.90;;;;;;;15.98;62.43;99405.66;10430569;28;20041;-58
2023/12/13 02:13:06;;;;;;;1.52;0.75;;;;;;;15.97;62.48;99410.22;10448589;28;20378;-58
2023/12/13 02:18:06;;;;;;;1.35;0.77;;;;;;;15.97;62.85;99406.75;10455395;28;20384;-58
2023/12/13 02:23:07;;;;;;;1.48;0.70;;;;;;;15.96;62.78;99407.84;10455662;28;20473;-58
2023/12/13 02:28:07;;;;;;;1.02;0.73;;;;;;;15.94;62.83;99404.69;10455396;28;20409;-58
2023/12/13 02:33:08;;;;;;;0.95;0.50;;;;;;;15.93;62.18;99401.25;10445202;28;20045;-59
2023/12/13 02:38:08;;;;;;;0.85;0.50;;;;;;;15.92;62.19;99394.31;10454838;28;20025;-58
2023/12/13 02:43:09;;;;;;;1.00;0.70;;;;;;;15.92;61.57;99398.88;10455232;28;20115;-58
2023/12/13 02:48:10;;;;;;;1.15;0.60;;;;;;;15.91;61.63;99384.72;10454670;28;20040;-58
2023/12/13 02:53:10;;;;;;;1.15;0.73;;;;;;;15.90;62.84;99385.03;10454714;28;20025;-58
2023/12/13 02:58:10;;;;;;;1.35;0.70;;;;;;;15.90;62.76;99380.47;10454220;28;20029;-58
2023/12/13 03:03:11;;;;;;;1.10;0.50;;;;;;;15.88;61.53;99379.22;10436630;28;20100;-58
2023/12/13 03:08:14;;;;;;;1.52;0.85;;;;;;;15.87;62.22;99372.31;10453842;28;20044;-58
2023/12/13 03:13:15;;;;;;;1.42;0.70;;;;;;;15.88;62.13;99373.88;10453717;28;20039;-58
2023/12/13 03:18:15;;;;;;;1.10;0.77;;;;;;;15.87;61.66;99358.94;10435703;28;20031;-58
2023/12/13 03:23:15;;;;;;;2.63;0.93;;;;;;;15.87;61.82;99374.97;10453735;28;20543;-58
2023/12/13 03:28:16;;;;;;;1.30;1.10;;;;;;;15.86;61.77;99373.38;10452056;28;20271;-58
2023/12/13 03:33:16;;;;;;;1.17;0.60;;;;;;;15.84;62.41;99365.66;10443393;28;20299;-58
2023/12/13 03:38:16;;;;;;;1.30;0.80;;;;;;;15.93;61.81;99363.81;10452678;28;20283;-58
2023/12/13 03:43:17;;;;;;;1.87;0.87;;;;;;;16.19;61.88;99363.88;10452717;28;20092;-57
2023/12/13 03:48:17;;;;;;;1.43;0.50;;;;;;;16.60;59.70;99351.97;10452404;28;20290;-58
2023/12/13 03:53:17;;;;;;;1.40;1.02;;;;;;;16.99;59.48;99361.72;10452428;28;20382;-58
2023/12/13 03:58:18;;;;;;;1.13;0.50;;;;;;;17.24;57.81;99352.84;10451890;28;20032;-58
2023/12/13 04:03:18;;;;;;;1.97;0.60;;;;;;;17.48;57.15;99360.34;10452052;28;20611;-58
2023/12/13 04:08:18;;;;;;;1.27;0.87;;;;;;;17.68;57.39;99348.13;10451364;28;20290;-58
2023/12/13 04:13:19;;;;;;;0.47;0.40;;;;;;;17.86;56.04;99356.91;10451288;28;20382;-58
2023/12/13 04:18:19;;;;;;;0.83;0.50;;;;;;;17.93;56.98;99349.13;10450701;28;20020;-58
2023/12/13 04:23:19;;;;;;;1.50;0.50;;;;;;;18.03;56.30;99356.81;10450643;28;20271;-58
2023/12/13 04:28:20;;;;;;;1.07;0.50;;;;;;;18.13;57.10;99349.50;10450055;28;20267;-58
2023/12/13 04:33:20;;;;;;;1.07;0.50;;;;;;;18.19;56.41;99350.88;10451704;28;20295;-58
2023/12/13 04:38:20;;;;;;;1.90;0.50;;;;;;;18.27;56.32;99355.41;10449535;28;20279;-58
2023/12/13 04:43:20;;;;;;;1.30;0.50;;;;;;;18.32;56.63;99350.63;10449735;28;20278;-57
2023/12/13 04:48:21;;;;;;;4.00;0.60;;;;;;;18.36;56.70;99353.47;10448791;28;20087;-58
2023/12/13 04:53:21;;;;;;;0.85;0.50;;;;;;;18.34;57.37;99352.97;10450041;28;20404;-58
2023/12/13 04:58:22;;;;;;;0.97;0.47;;;;;;;18.28;56.25;99349.72;10449856;28;20379;-58
2023/12/13 05:03:22;;;;;;;1.17;0.60;;;;;;;18.26;56.67;99340.44;10431980;28;20279;-57
2023/12/13 05:08:22;;;;;;;1.23;0.47;;;;;;;18.15;57.21;99342.72;10449400;28;20023;-58
2023/12/13 05:13:23;;;;;;;1.93;0.70;;;;;;;18.09;57.01;99342.09;10449737;28;20033;-58
2023/12/13 05:18:23;;;;;;;1.17;0.60;;;;;;;18.09;56.77;99334.03;10449668;28;20021;-58
2023/12/13 05:23:23;;;;;;;0.90;0.60;;;;;;;18.04;56.97;99339.63;10449228;28;20271;-58
2023/12/13 05:28:24;;;;;;;1.45;0.63;;;;;;;18.01;57.68;99342.94;10448414;28;20366;-58
2023/12/13 05:33:24;;;;;;;1.87;0.67;;;;;;;18.00;57.79;99344.06;10446658;28;20056;-57
2023/12/13 05:38:25;;;;;;;1.03;0.53;;;;;;;17.96;57.31;99343.13;10449171;28;20739;-58
2023/12/13 05:43:25;;;;;;;0.68;0.40;;;;;;;17.94;57.04;99353.41;10449168;28;20662;-58
2023/12/13 05:48:26;;;;;;;2.35;0.75;;;;;;;17.96;57.08;99351.16;10449035;28;20028;-58
2023/12/13 05:53:27;;;;;;;1.07;0.70;;;;;;;18.01;58.07;99347.53;10457078;28;20029;-57
2023/12/13 05:58:29;;;;;;;0.85;0.40;;;;;;;17.98;56.67;99351.63;10456618;28;20076;-58
2023/12/13 06:03:30;;;;;;;0.55;0.40;;;;;;;17.98;56.79;99343.59;10456820;28;20024;-58
2023/12/13 06:08:30;;;;;;;0.93;0.70;;;;;;;17.99;57.25;99347.03;10438389;28;20025;-58
2023/12/13 06:13:30;;;;;;;3.20;0.50;;;;;;;18.01;57.39;99352.91;10456475;28;20029;-58
2023/12/13 06:18:31;;;;;;;4.53;0.60;;;;;;;18.02;58.21;99357.94;10455592;28;20278;-57
2023/12/13 06:23:31;;;;;;;4.35;0.77;;;;;;;18.09;58.51;99349.34;10456859;28;20642;-58
2023/12/13 06:28:31;;;;;;;4.17;0.70;;;;;;;18.08;59.69;99347.78;10456018;28;20396;-58
2023/12/13 06:33:32;;;;;;;14.27;1.23;;;;;;;18.05;59.35;99348.44;10455857;28;20311;-56
2023/12/13 06:38:33;;;;;;;11.67;1.50;;;;;;;17.99;58.46;99352.41;10455316;28;20668;-57
2023/12/13 06:43:33;;;;;;;14.38;1.80;;;;;;;17.95;59.25;99362.22;10454862;28;20472;-58
2023/12/13 06:48:33;;;;;;;23.53;2.37;;;;;;;17.92;58.31;99362.88;10455100;28;20071;-57
2023/12/13 06:53:37;;;;;;;16.33;2.17;;;;;;;17.87;59.49;99363.81;10454697;28;20372;-58
2023/12/13 06:58:37;;;;;;;18.65;2.80;;;;;;;17.92;58.75;99365.56;10454131;28;20462;-58
2023/12/13 07:03:39;;;;;;;13.07;2.22;;;;;;;17.87;58.52;99366.50;10454483;28;20023;-59
2023/12/13 07:08:39;;;;;;;22.92;3.05;;;;;;;17.99;58.55;99374.66;10454867;28;20114;-58
2023/12/13 07:13:39;;;;;;;21.23;3.23;;;;;;;17.92;58.75;99366.34;10454402;28;20079;-55
2023/12/13 07:18:40;;;;;;;14.00;3.00;;;;;;;17.91;59.33;99377.41;10449979;28;20904;-56
2023/12/13 07:23:40;;;;;;;12.30;2.83;;;;;;;17.92;57.58;99384.34;10454281;28;20028;-56
2023/12/13 07:28:40;;;;;;;13.38;2.50;;;;;;;17.81;58.37;99378.53;10453675;28;20283;-55
2023/12/13 07:33:41;;;;;;;12.57;2.57;;;;;;;17.71;58.51;99373.53;10443344;28;20045;-56
2023/12/13 07:38:42;;;;;;;12.95;2.05;;;;;;;17.75;59.50;99374.44;10450491;28;20384;-56
2023/12/13 07:43:42;;;;;;;20.13;2.78;;;;;;;17.74;59.46;99372.88;10453137;28;20032;-56
2023/12/13 07:48:42;;;;;;;7.13;1.60;;;;;;;17.76;58.91;99386.78;10452572;28;20444;-56
2023/12/13 07:53:43;;;;;;;9.55;1.85;;;;;;;17.74;59.34;99378.25;10453215;28;20291;-56
2023/12/13 07:58:43;;;;;;;13.30;3.23;;;;;;;17.77;59.76;99381.09;10441483;28;20087;-56
2023/12/13 08:03:46;;;;;;;7.83;2.00;;;;;;;17.89;58.59;99393.81;10451355;28;20789;-56
2023/12/13 08:08:47;;;;;;;17.60;1.92;;;;;;;17.97;58.30;99390.28;10450964;28;20284;-56
2023/12/13 08:13:47;;;;;;;12.35;2.00;;;;;;;17.93;58.46;99393.94;10451312;28;20031;-56
2023/12/13 08:18:48;;;;;;;6.80;1.70;;;;;;;17.86;57.68;99391.75;10451422;28;20040;-56
2023/12/13 08:23:48;;;;;;;8.53;1.57;;;;;;;17.74;57.97;99392.44;10451268;28;20350;-56
2023/12/13 08:28:49;;;;;;;11.65;1.63;;;;;;;17.68;58.42;99398.28;10450563;28;20275;-54
2023/12/13 08:33:50;;;;;;;18.80;2.00;;;;;;;17.59;58.65;99406.34;10448443;28;20481;-55
2023/12/13 08:38:50;;;;;;;8.38;1.77;;;;;;;17.53;59.59;99411.09;10450934;28;20032;-56
2023/12/13 08:43:50;;;;;;;11.65;2.47;;;;;;;17.54;60.37;99418.03;10451159;28;20115;-56
2023/12/13 08:48:51;;;;;;;6.83;1.30;;;;;;;17.59;59.01;99418.97;10450319;28;20025;-56
2023/12/13 08:53:54;;;;;;;9.30;2.17;;;;;;;17.65;60.25;99409.66;10451059;28;20298;-56
2023/12/13 08:58:54;;;;;;;8.60;2.30;;;;;;;17.65;60.18;99412.34;10450106;28;20430;-56
2023/12/13 09:03:55;;;;;;;8.85;1.95;;;;;;;17.54;61.27;99422.59;10450181;28;20016;-53
2023/12/13 09:08:56;;;;;;;7.82;2.40;;;;;;;17.62;60.87;99418.31;10449221;28;20021;-56
2023/12/13 09:13:58;;;;;;;7.63;2.42;;;;;;;17.64;59.62;99435.66;10449437;28;20460;-55
2023/12/13 09:18:58;;;;;;;10.05;2.25;;;;;;;17.59;59.87;99435.03;10449121;28;20028;-56
2023/12/13 09:23:58;;;;;;;10.07;2.20;;;;;;;17.53;60.03;99442.47;10450507;28;20035;-56
2023/12/13 09:28:59;;;;;;;7.07;1.48;;;;;;;17.44;59.52;99439.03;10457584;28;20286;-55
2023/12/13 09:33:59;;;;;;;9.17;1.20;;;;;;;17.42;60.27;99443.91;10457867;28;20048;-56
2023/12/13 09:38:59;;;;;;;7.90;1.80;;;;;;;17.41;60.56;99455.75;10456834;28;20039;-57
2023/12/13 09:44:00;;;;;;;3.35;1.27;;;;;;;17.49;59.81;99461.06;10456714;28;20271;-56
2023/12/13 09:49:00;;;;;;;4.57;1.35;;;;;;;17.48;59.28;99454.13;10439084;28;20055;-56
2023/12/13 09:54:02;;;;;;;8.13;1.60;;;;;;;17.49;59.74;99461.06;10439381;28;20655;-55
2023/12/13 09:59:03;;;;;;;6.13;2.05;;;;;;;17.53;60.08;99470.06;10438094;28;20287;-55
2023/12/13 10:04:04;;;;;;;8.05;1.60;;;;;;;17.57;58.67;99480.94;10456684;28;20021;-56
2023/12/13 10:09:07;;;;;;;8.60;1.52;;;;;;;17.56;59.93;99474.00;10457061;28;20457;-56
2023/12/13 10:14:07;;;;;;;15.65;2.17;;;;;;;17.57;60.03;99480.94;10456046;28;20024;-54
2023/12/13 10:19:08;;;;;;;6.72;1.75;;;;;;;17.54;59.75;99486.94;10456338;28;20083;-57
2023/12/13 10:24:08;;;;;;;7.32;1.35;;;;;;;17.53;60.89;99486.16;10455391;28;20437;-57
2023/12/13 10:29:08;;;;;;;4.67;1.63;;;;;;;17.45;60.61;99497.66;10454851;28;20435;-56
2023/12/13 10:34:09;;;;;;;5.15;1.40;;;;;;;17.53;60.16;99498.75;10455041;28;20287;-56
2023/12/13 10:39:13;;;;;;;7.28;1.25;;;;;;;17.45;60.47;99496.88;10455077;28;20043;-57
2023/12/13 10:44:16;;;;;;;11.50;1.80;;;;;;;17.51;60.70;99496.38;10454030;28;20055;-57
2023/12/13 10:49:16;;;;;;;10.15;1.67;;;;;;;17.53;60.31;99494.19;10454817;28;20506;-56
2023/12/13 10:54:17;;;;;;;6.07;1.52;;;;;;;17.51;59.14;99491.00;10454866;28;20108;-56
2023/12/13 10:59:18;;;;;;;4.43;1.38;;;;;;;17.49;60.50;99492.44;10452715;28;20026;-57
2023/12/13 11:04:18;;;;;;;5.95;1.20;;;;;;;17.52;58.84;99491.78;10436784;28;20120;-55
2023/12/13 11:09:20;;;;;;;6.50;1.30;;;;;;;17.50;60.45;99494.00;10436822;28;20025;-55
2023/12/13 11:14:25;;;;;;;3.85;1.10;;;;;;;17.45;58.91;99503.00;10454250;28;20024;-56
2023/12/13 11:19:26;;;;;;;3.85;1.48;;;;;;;17.37;59.12;99514.50;10454485;28;20028;-54
2023/12/13 11:24:28;;;;;;;3.10;1.15;;;;;;;17.34;59.01;99515.16;10454038;28;20017;-57
2023/12/13 11:29:29;;;;;;;5.68;1.42;;;;;;;17.26;59.58;99510.56;10454027;28;20053;-56
2023/12/13 11:34:45;;;;;;;5.95;1.30;;;;;;;17.22;59.72;99510.44;10453912;28;20564;-57
2023/12/13 11:39:46;;;;;;;3.60;1.10;;;;;;;17.17;60.91;99521.31;10436481;28;20098;-56
2023/12/13 11:44:46;;;;;;;4.88;1.58;;;;;;;17.13;60.82;99522.25;10452665;28;20021;-57
2023/12/13 11:49:47;;;;;;;3.67;0.93;;;;;;;17.08;61.33;99530.44;10452477;28;20421;-57
2023/12/13 11:54:47;;;;;;;3.15;0.82;;;;;;;17.04;59.89;99532.16;10452627;28;20029;-57
2023/12/13 11:59:48;;;;;;;3.03;1.00;;;;;;;17.00;60.35;99539.25;10453126;28;20025;-56
2023/12/13 12:04:49;;;;;;;3.28;1.17;;;;;;;16.97;59.74;99539.88;10434488;28;20275;-56
2023/12/13 12:09:50;;;;;;;3.97;1.40;;;;;;;16.93;61.04;99543.19;10452191;28;20016;-56
2023/12/13 12:14:51;;;;;;;3.33;1.40;;;;;;;16.90;60.08;99549.13;10452170;28;20074;-57
2023/12/13 12:19:51;;;;;;;3.88;1.20;;;;;;;16.86;61.41;99545.53;10451694;28;20086;-57
2023/12/13 12:24:52;;;;;;;3.53;1.70;;;;;;;16.85;61.34;99549.31;10451834;28;20573;-56
2023/12/13 12:29:53;;;;;;;2.80;1.05;;;;;;;16.82;60.03;99541.13;10445989;28;20049;-57
2023/12/13 12:34:54;;;;;;;7.03;2.05;;;;;;;16.82;62.48;99543.78;10451014;28;20508;-56
2023/12/13 12:39:55;;;;;;;6.95;1.30;;;;;;;16.83;61.15;99545.38;10451411;28;20021;-56
2023/12/13 12:44:55;;;;;;;2.75;1.25;;;;;;;16.77;61.66;99547.38;10450762;28;20017;-56
2023/12/13 12:49:56;;;;;;;3.80;1.17;;;;;;;16.73;61.42;99551.00;10450820;28;20052;-56
2023/12/13 12:54:56;;;;;;;4.97;1.47;;;;;;;16.69;61.00;99564.19;10450580;28;20036;-57
2023/12/13 12:59:57;;;;;;;5.00;1.30;;;;;;;16.69;62.14;99560.75;10450708;28;20283;-56
2023/12/13 13:04:57;;;;;;;3.33;1.70;;;;;;;16.65;60.64;99558.66;10450372;28;20259;-56
2023/12/13 13:09:57;;;;;;;4.03;2.03;;;;;;;16.64;62.13;99569.69;10449957;28;20031;-57
2023/12/13 13:14:58;;;;;;;5.30;1.60;;;;;;;16.54;62.36;99575.31;10449725;28;20029;-56
2023/12/13 13:19:58;;;;;;;4.03;1.23;;;;;;;16.61;62.48;99579.13;10450550;28;20797;-57
2023/12/13 13:25:00;;;;;;;3.85;1.90;;;;;;;16.64;62.85;99575.81;10449378;28;20286;-57
2023/12/13 13:30:00;;;;;;;3.25;1.42;;;;;;;16.66;61.80;99580.84;10449479;28;20093;-57
2023/12/13 13:35:00;;;;;;;2.27;1.40;;;;;;;16.63;61.23;99571.56;10449976;28;20044;-56
2023/12/13 13:40:01;;;;;;;4.10;1.48;;;;;;;16.62;62.41;99572.66;10449981;28;20677;-57
2023/12/13 13:45:01;;;;;;;5.47;1.60;;;;;;;16.63;61.26;99576.91;10449593;28;20029;-57
2023/12/13 13:50:03;;;;;;;2.83;1.60;;;;;;;16.70;62.03;99589.91;10431846;28;20036;-57
2023/12/13 13:55:05;;;;;;;3.88;1.80;;;;;;;16.72;60.90;99590.38;10449173;28;20033;-56
2023/12/13 14:00:10;;;;;;;6.35;3.45;;;;;;;16.71;60.68;99596.03;10449626;28;20040;-56
2023/12/13 14:05:10;;;;;;;4.50;1.38;;;;;;;16.73;61.99;99599.19;10449063;28;20445;-55
2023/12/13 14:10:11;;;;;;;3.15;1.60;;;;;;;16.82;60.60;99608.03;10450641;28;20040;-56
2023/12/13 14:15:11;;;;;;;3.15;1.65;;;;;;;16.85;60.37;99620.81;10453662;28;20029;-57
2023/12/13 14:20:12;;;;;;;3.47;1.33;;;;;;;16.85;60.51;99626.16;10453753;28;20029;-55
2023/12/13 14:25:13;;;;;;;2.72;1.33;;;;;;;16.81;61.64;99631.34;10453463;28;20362;-56
2023/12/13 14:30:13;;;;;;;2.75;1.38;;;;;;;16.76;61.71;99647.53;10444235;28;20094;-56
2023/12/13 14:35:14;;;;;;;3.83;1.35;;;;;;;16.78;61.43;99644.53;10434860;28;20044;-56
2023/12/13 14:40:18;;;;;;;5.30;1.58;;;;;;;16.80;61.96;99658.41;10435449;28;20032;-56
2023/12/13 14:45:18;;;;;;;3.72;1.38;;;;;;;16.76;61.30;99668.94;10452871;28;20029;-57
2023/12/13 14:50:19;;;;;;;5.07;1.40;;;;;;;16.75;61.59;99671.94;10452872;28;20025;-56
2023/12/13 14:55:19;;;;;;;3.78;1.42;;;;;;;16.72;60.99;99680.59;10452197;28;20635;-57
2023/12/13 15:00:20;;;;;;;2.70;1.13;;;;;;;16.69;61.52;99686.53;10454960;28;20025;-56
2023/12/13 15:05:20;;;;;;;4.22;1.63;;;;;;;16.65;60.61;99694.38;10454297;28;20025;-56
2023/12/13 15:10:21;;;;;;;2.93;1.50;;;;;;;16.67;61.90;99711.72;10454424;28;20578;-56
2023/12/13 15:15:21;;;;;;;3.78;1.38;;;;;;;16.76;60.42;99716.34;10453565;28;20328;-57
2023/12/13 15:20:22;;;;;;;3.08;1.52;;;;;;;16.76;59.95;99732.41;10454393;28;20025;-57
2023/12/13 15:25:22;;;;;;;3.03;1.52;;;;;;;16.77;60.18;99733.97;10451157;28;20025;-57
2023/12/13 15:30:26;;;;;;;4.85;1.45;;;;;;;16.76;60.41;99743.91;10428373;28;20587;-55
2023/12/13 15:35:26;;;;;;;15.40;3.35;;;;;;;16.88;61.60;99752.16;10437146;28;20036;-57
2023/12/13 15:40:27;;;;;;;22.03;3.63;;;;;;;16.85;60.88;99760.81;10448875;28;20048;-55
2023/12/13 15:45:27;;;;;;;21.30;3.28;;;;;;;16.95;62.17;99759.75;10452298;28;20279;-56
2023/12/13 15:50:28;;;;;;;23.07;3.90;;;;;;;17.25;60.83;99760.81;10452217;28;20025;-54
2023/12/13 15:55:28;;;;;;;21.10;5.27;;;;;;;17.69;60.87;99765.25;10452141;28;20290;-56
2023/12/13 16:00:28;;;;;;;20.52;4.40;;;;;;;17.92;60.96;99771.28;10452646;28;20287;-55
2023/12/13 16:05:29;;;;;;;17.70;3.63;;;;;;;18.17;59.58;99791.19;10451966;28;20025;-52
2023/12/13 16:10:29;;;;;;;13.10;4.03;;;;;;;18.24;59.57;99793.41;10450284;28;20329;-55
2023/12/13 16:15:29;;;;;;;15.73;3.63;;;;;;;18.21;60.47;99804.75;10410278;28;20280;-54
2023/12/13 16:20:30;;;;;;;10.73;3.78;;;;;;;18.16;62.08;99804.94;10441663;28;20278;-56
2023/12/13 16:25:30;;;;;;;15.23;5.05;;;;;;;18.24;61.13;99810.31;10432906;28;20031;-55
2023/12/13 16:30:31;;;;;;;11.00;5.88;;;;;;;18.33;60.10;99821.81;10446865;28;20484;-56
2023/12/13 16:35:31;;;;;;;12.73;5.50;;;;;;;18.34;59.98;99823.38;10432574;28;20086;-54
2023/12/13 16:40:32;;;;;;;13.52;5.80;;;;;;;18.29;60.49;99839.66;10450254;28;20021;-54
2023/12/13 16:45:32;;;;;;;16.93;5.20;;;;;;;18.29;61.31;99845.03;10442707;28;20040;-54
2023/12/13 16:50:33;;;;;;;14.00;5.23;;;;;;;18.19;61.81;99852.59;10445066;28;20634;-56
2023/12/13 16:55:34;;;;;;;13.40;5.53;;;;;;;17.97;63.83;99874.94;10432035;28;20036;-56
2023/12/13 17:00:34;;;;;;;11.90;5.55;;;;;;;17.80;63.81;99881.06;10415463;28;20028;-55
2023/12/13 17:05:34;;;;;;;11.90;4.90;;;;;;;17.68;64.17;99883.50;10449419;28;20499;-55
2023/12/13 17:10:35;;;;;;;13.27;5.03;;;;;;;17.66;64.12;99899.09;10449643;28;20028;-56
2023/12/13 17:15:35;;;;;;;14.70;4.77;;;;;;;17.63;63.56;99900.50;10449161;28;20025;-55
2023/12/13 17:20:35;;;;;;;11.57;4.00;;;;;;;17.52;62.76;99912.56;10437425;28;20287;-55
2023/12/13 17:25:36;;;;;;;12.97;4.97;;;;;;;17.51;63.58;99924.41;10429681;28;20750;-55
2023/12/13 17:30:36;;;;;;;11.83;5.00;;;;;;;17.49;63.82;99931.97;10418738;28;20295;-55
2023/12/13 17:35:36;;;;;;;13.85;5.13;;;;;;;17.37;62.87;99943.25;10448418;28;20415;-55
2023/12/13 17:40:37;;;;;;;8.87;4.23;;;;;;;17.28;63.64;99949.63;10448709;28;20411;-54
2023/12/13 17:45:39;;;;;;;9.85;4.50;;;;;;;17.34;63.32;99951.91;10427129;28;20028;-55
2023/12/13 17:50:41;;;;;;;7.43;3.42;;;;;;;17.46;62.72;99965.53;10457098;28;20076;-54
2023/12/13 17:55:41;;;;;;;11.80;4.22;;;;;;;17.99;61.85;99983.50;10456492;28;20040;-55
2023/12/13 18:00:46;;;;;;;8.48;3.65;;;;;;;18.21;60.93;99979.97;10456215;28;20072;-57
2023/12/13 18:05:46;;;;;;;15.45;4.70;;;;;;;18.32;62.53;99991.22;10455994;28;20441;-54
2023/12/13 18:10:47;;;;;;;15.87;4.97;;;;;;;18.22;61.54;99996.84;10456374;28;20024;-56
2023/12/13 18:15:48;;;;;;;9.43;4.53;;;;;;;18.13;64.02;100012.16;10437854;28;20295;-56
2023/12/13 18:20:49;;;;;;;13.55;5.57;;;;;;;18.02;63.44;100025.81;10456798;28;20328;-53
2023/12/13 18:25:54;;;;;;;8.00;5.55;;;;;;;17.94;63.61;100039.97;10438455;28;20029;-56
2023/12/13 18:30:54;;;;;;;8.55;6.32;;;;;;;17.87;65.54;100041.50;10446910;28;20051;-55
2023/12/13 18:35:57;;;;;;;10.63;6.60;;;;;;;17.82;64.39;100050.47;10455991;28;20025;-56
2023/12/13 18:40:57;;;;;;;9.75;6.22;;;;;;;17.79;65.67;100056.44;10455611;28;20024;-55
2023/12/13 18:45:58;;;;;;;8.98;7.25;;;;;;;17.69;65.90;100059.38;10437733;28;20021;-55
2023/12/13 18:50:58;;;;;;;8.68;6.68;;;;;;;17.74;65.05;100073.44;10454759;28;20116;-56
2023/12/13 18:55:58;;;;;;;8.20;6.33;;;;;;;17.69;64.79;100081.63;10454693;28;20135;-55
2023/12/13 19:00:59;;;;;;;10.38;6.68;;;;;;;17.64;65.05;100096.97;10454672;28;20366;-54
2023/12/13 19:05:59;;;;;;;9.82;6.30;;;;;;;17.58;64.84;100104.38;10454755;28;20078;-55
2023/12/13 19:10:59;;;;;;;9.18;6.15;;;;;;;17.50;64.03;100107.75;10453041;28;20060;-54
2023/12/13 19:16:00;;;;;;;8.43;6.67;;;;;;;17.49;63.77;100123.06;10454006;28;20605;-55
2023/12/13 19:21:00;;;;;;;7.60;5.63;;;;;;;17.44;65.28;100133.09;10452988;28;20370;-55
2023/12/13 19:26:00;;;;;;;10.33;6.87;;;;;;;17.47;63.78;100137.84;10453040;28;20365;-55
2023/12/13 19:31:01;;;;;;;8.93;6.07;;;;;;;17.44;65.17;100143.81;10449635;28;20345;-54
2023/12/13 19:36:01;;;;;;;7.85;6.00;;;;;;;17.48;63.55;100148.28;10453338;28;20290;-56
2023/12/13 19:41:02;;;;;;;6.37;5.10;;;;;;;17.48;63.84;100163.56;10449592;28;20029;-54
2023/12/13 19:46:03;;;;;;;11.73;5.93;;;;;;;17.41;63.25;100172.03;10451818;28;20271;-56
2023/12/13 19:51:03;;;;;;;10.95;5.07;;;;;;;17.41;64.39;100184.63;10451224;28;20031;-54
2023/12/13 19:56:04;;;;;;;9.40;4.97;;;;;;;17.40;63.77;100196.41;10452343;28;20052;-57
2023/12/13 20:01:04;;;;;;;7.95;4.88;;;;;;;17.39;64.27;100195.63;10446849;28;20024;-57
2023/12/13 20:06:05;;;;;;;8.75;5.28;;;;;;;17.35;64.08;100213.41;10448663;28;20021;-57
2023/12/13 20:11:06;;;;;;;7.63;5.20;;;;;;;17.34;62.67;100217.19;10450355;28;20108;-56
2023/12/13 20:16:06;;;;;;;7.20;4.95;;;;;;;17.30;63.07;100228.81;10451424;28;20442;-56
2023/12/13 20:21:07;;;;;;;8.32;5.50;;;;;;;17.24;62.96;100242.28;10451680;28;20477;-55
2023/12/13 20:26:08;;;;;;;6.70;4.82;;;;;;;17.20;64.24;100257.38;10447474;28;20044;-56
2023/12/13 20:31:08;;;;;;;7.25;4.68;;;;;;;17.15;64.17;100265.50;10450792;28;20060;-56
2023/12/13 20:36:10;;;;;;;6.50;4.67;;;;;;;17.10;63.29;100273.63;10450454;28;20021;-57
2023/12/13 20:41:10;;;;;;;7.07;5.10;;;;;;;17.04;63.32;100290.88;10449761;28;20275;-57
2023/12/13 20:46:10;;;;;;;5.77;4.20;;;;;;;17.00;63.67;100294.44;10450313;28;20021;-56
2023/12/13 20:51:11;;;;;;;7.47;4.67;;;;;;;16.95;63.42;100304.16;10431580;28;20279;-56
2023/12/13 20:56:11;;;;;;;5.22;4.00;;;;;;;16.92;64.74;100317.34;10430562;28;20299;-56
2023/12/13 21:01:14;;;;;;;6.60;3.92;;;;;;;16.88;63.40;100324.38;10450160;28;20036;-56
2023/12/13 21:06:14;;;;;;;6.90;3.97;;;;;;;16.85;63.29;100325.75;10450000;28;20104;-56
2023/12/13 21:11:15;;;;;;;6.55;4.15;;;;;;;16.83;63.99;100337.84;10449986;28;20103;-56
2023/12/13 21:16:15;;;;;;;5.57;3.53;;;;;;;16.80;63.11;100360.63;10449905;28;20033;-56
2023/12/13 21:21:15;;;;;;;6.17;4.07;;;;;;;16.76;63.95;100367.66;10448116;28;20083;-55
2023/12/13 21:26:16;;;;;;;5.10;3.78;;;;;;;16.72;63.70;100372.03;10449924;28;20271;-56
2023/12/13 21:31:16;;;;;;;5.43;3.40;;;;;;;16.69;63.76;100380.63;10439983;28;20057;-56
2023/12/13 21:36:16;;;;;;;4.47;3.17;;;;;;;16.66;63.43;100398.03;10431470;28;20279;-57
2023/12/13 21:41:18;;;;;;;5.72;3.83;;;;;;;16.64;64.20;100407.44;10448852;28;20079;-56
2023/12/13 21:46:23;;;;;;;9.00;3.47;;;;;;;16.61;63.98;100430.25;10449432;28;20033;-54
2023/12/13 21:51:23;;;;;;;3.50;2.80;;;;;;;16.60;63.21;100430.53;10448936;28;20102;-56
2023/12/13 21:56:24;;;;;;;4.07;3.60;;;;;;;16.57;63.22;100439.13;10449222;28;20074;-56
2023/12/13 22:01:24;;;;;;;5.10;2.83;;;;;;;16.56;64.44;100454.38;10448812;28;20362;-55
2023/12/13 22:06:24;;;;;;;3.87;2.80;;;;;;;16.53;63.24;100454.16;10447782;28;20295;-56
2023/12/13 22:11:25;;;;;;;5.83;3.50;;;;;;;16.51;63.27;100461.69;10448435;28;20275;-56
2023/12/13 22:16:27;;;;;;;4.33;3.30;;;;;;;16.49;64.21;100453.97;10448372;28;20640;-55
2023/12/13 22:21:27;;;;;;;4.18;2.92;;;;;;;16.47;63.66;100463.34;10430482;28;20294;-57
2023/12/13 22:26:27;;;;;;;4.22;2.50;;;;;;;16.45;63.07;100476.22;10430865;28;20025;-56
2023/12/13 22:31:28;;;;;;;4.53;3.77;;;;;;;16.43;63.42;100497.91;10421751;28;20103;-56
2023/12/13 22:36:28;;;;;;;4.77;2.80;;;;;;;16.41;63.04;100491.25;10437678;28;20325;-56
2023/12/13 22:41:28;;;;;;;4.10;3.10;;;;;;;16.40;64.10;100511.06;10454146;28;20283;-56
2023/12/13 22:46:29;;;;;;;3.65;2.90;;;;;;;16.37;63.97;100534.66;10455407;28;20275;-56
2023/12/13 22:51:29;;;;;;;3.67;2.58;;;;;;;16.35;64.00;100536.81;10455051;28;20021;-55
2023/12/13 22:56:29;;;;;;;3.73;2.70;;;;;;;16.34;63.37;100553.94;10454976;28;20539;-56
2023/12/13 23:01:31;;;;;;;4.00;2.70;;;;;;;16.32;63.41;100555.28;10454781;28;20314;-56
2023/12/13 23:06:34;;;;;;;3.97;2.63;;;;;;;16.31;63.35;100562.53;10453194;28;20366;-57
2023/12/13 23:11:34;;;;;;;3.95;2.58;;;;;;;16.30;63.12;100571.63;10454065;28;20028;-55